sensor_id;sensor_type;location;lat;lon;timestamp;P1;durP1;ratioP1;P2;durP2;ratioP2
4533;SDS011;2279;51.448;7.306;2022-08-21T00:01:25;12.63;;;8.43;;
4533;SDS011;2279;51.448;7.306;2022-08-21T00:03:52;12.93;;;7.70;;
4533;SDS011;2279;51.448;7.306;2022-08-21T00:06:18;15.43;;;9.07;;
4533;SDS011;2279;51.448;7.306;2022-08-21T00:08:44;10.43;;;7.37;;
4533;SDS011;2279;51.448;7.306;2022-08-21T00:11:10;11.40;;;8.30;;
4533;SDS011;2279;51.448;7.306;2022-08-21T00:13:36;14.53;;;9.43;;
4533;SDS011;2279;51.448;7.306;2022-08-21T00:16:03;11.07;;;7.87;;
4533;SDS011;2279;51.448;7.306;2022-08-21T00:18:29;10.73;;;7.33;;
4533;SDS011;2279;51.448;7.306;2022-08-21T00:20:55;8.50;;;6.70;;
4533;SDS011;2279;51.448;7.306;2022-08-21T00:23:21;11.17;;;7.90;;
4533;SDS011;2279;51.448;7.306;2022-08-21T00:25:47;14.83;;;7.53;;
4533;SDS011;2279;51.448;7.306;2022-08-21T00:28:14;11.67;;;7.57;;
4533;SDS011;2279;51.448;7.306;2022-08-21T00:30:40;14.10;;;7.50;;
4533;SDS011;2279;51.448;7.306;2022-08-21T00:33:06;10.87;;;7.93;;
4533;SDS011;2279;51.448;7.306;2022-08-21T00:35:34;12.90;;;7.37;;
4533;SDS011;2279;51.448;7.306;2022-08-21T00:38:01;9.90;;;7.37;;
4533;SDS011;2279;51.448;7.306;2022-08-21T00:40:33;16.50;;;7.93;;
4533;SDS011;2279;51.448;7.306;2022-08-21T00:43:01;13.77;;;7.80;;
4533;SDS011;2279;51.448;7.306;2022-08-21T00:45:27;13.13;;;8.10;;
4533;SDS011;2279;51.448;7.306;2022-08-21T00:47:55;11.30;;;7.17;;
4533;SDS011;2279;51.448;7.306;2022-08-21T00:50:21;13.40;;;8.30;;
4533;SDS011;2279;51.448;7.306;2022-08-21T00:52:49;14.93;;;7.70;;
4533;SDS011;2279;51.448;7.306;2022-08-21T00:55:15;16.00;;;8.00;;
4533;SDS011;2279;51.448;7.306;2022-08-21T00:57:47;12.67;;;7.90;;
4533;SDS011;2279;51.448;7.306;2022-08-21T01:00:16;11.03;;;7.40;;
4533;SDS011;2279;51.448;7.306;2022-08-21T01:02:44;12.13;;;7.00;;
4533;SDS011;2279;51.448;7.306;2022-08-21T01:05:10;11.60;;;8.17;;
4533;SDS011;2279;51.448;7.306;2022-08-21T01:07:36;13.27;;;6.93;;
4533;SDS011;2279;51.448;7.306;2022-08-21T01:10:04;15.90;;;7.27;;
4533;SDS011;2279;51.448;7.306;2022-08-21T01:12:30;12.97;;;6.70;;
4533;SDS011;2279;51.448;7.306;2022-08-21T01:14:56;9.77;;;6.20;;
4533;SDS011;2279;51.448;7.306;2022-08-21T01:17:23;14.40;;;7.10;;
4533;SDS011;2279;51.448;7.306;2022-08-21T01:19:49;9.43;;;6.40;;
4533;SDS011;2279;51.448;7.306;2022-08-21T01:22:15;9.17;;;6.77;;
4533;SDS011;2279;51.448;7.306;2022-08-21T01:24:41;19.10;;;6.67;;
4533;SDS011;2279;51.448;7.306;2022-08-21T01:27:07;13.83;;;7.10;;
4533;SDS011;2279;51.448;7.306;2022-08-21T01:29:35;9.73;;;6.50;;
4533;SDS011;2279;51.448;7.306;2022-08-21T01:32:03;14.13;;;6.23;;
4533;SDS011;2279;51.448;7.306;2022-08-21T01:34:30;9.70;;;6.43;;
4533;SDS011;2279;51.448;7.306;2022-08-21T01:36:57;13.10;;;6.70;;
4533;SDS011;2279;51.448;7.306;2022-08-21T01:39:22;15.23;;;6.33;;
4533;SDS011;2279;51.448;7.306;2022-08-21T01:41:49;12.50;;;6.50;;
4533;SDS011;2279;51.448;7.306;2022-08-21T01:44:15;8.50;;;6.60;;
4533;SDS011;2279;51.448;7.306;2022-08-21T01:46:41;9.00;;;7.43;;
4533;SDS011;2279;51.448;7.306;2022-08-21T01:49:07;11.43;;;7.33;;
4533;SDS011;2279;51.448;7.306;2022-08-21T01:51:33;11.83;;;7.50;;
4533;SDS011;2279;51.448;7.306;2022-08-21T01:53:59;9.73;;;6.83;;
4533;SDS011;2279;51.448;7.306;2022-08-21T01:56:25;10.77;;;7.13;;
4533;SDS011;2279;51.448;7.306;2022-08-21T01:58:52;17.93;;;7.87;;
4533;SDS011;2279;51.448;7.306;2022-08-21T02:01:18;10.47;;;7.80;;
4533;SDS011;2279;51.448;7.306;2022-08-21T02:03:44;10.43;;;7.70;;
4533;SDS011;2279;51.448;7.306;2022-08-21T02:06:14;12.90;;;8.40;;
4533;SDS011;2279;51.448;7.306;2022-08-21T02:08:42;19.57;;;8.50;;
4533;SDS011;2279;51.448;7.306;2022-08-21T02:11:08;13.10;;;7.80;;
4533;SDS011;2279;51.448;7.306;2022-08-21T02:13:34;9.53;;;8.00;;
4533;SDS011;2279;51.448;7.306;2022-08-21T02:16:00;16.83;;;7.33;;
4533;SDS011;2279;51.448;7.306;2022-08-21T02:18:26;12.53;;;8.60;;
4533;SDS011;2279;51.448;7.306;2022-08-21T02:20:52;10.50;;;7.90;;
4533;SDS011;2279;51.448;7.306;2022-08-21T02:23:18;22.20;;;8.47;;
4533;SDS011;2279;51.448;7.306;2022-08-21T02:25:44;11.80;;;7.63;;
4533;SDS011;2279;51.448;7.306;2022-08-21T02:28:11;9.43;;;7.53;;
4533;SDS011;2279;51.448;7.306;2022-08-21T02:30:39;9.20;;;7.60;;
4533;SDS011;2279;51.448;7.306;2022-08-21T02:33:07;10.37;;;7.10;;
4533;SDS011;2279;51.448;7.306;2022-08-21T02:35:34;9.87;;;7.80;;
4533;SDS011;2279;51.448;7.306;2022-08-21T02:38:02;10.73;;;7.80;;
4533;SDS011;2279;51.448;7.306;2022-08-21T02:40:31;10.57;;;7.43;;
4533;SDS011;2279;51.448;7.306;2022-08-21T02:42:58;11.53;;;8.40;;
4533;SDS011;2279;51.448;7.306;2022-08-21T02:45:25;8.57;;;6.90;;
4533;SDS011;2279;51.448;7.306;2022-08-21T02:47:53;11.10;;;7.00;;
4533;SDS011;2279;51.448;7.306;2022-08-21T02:50:26;12.60;;;7.40;;
4533;SDS011;2279;51.448;7.306;2022-08-21T02:52:52;10.20;;;8.03;;
4533;SDS011;2279;51.448;7.306;2022-08-21T02:55:19;11.23;;;7.77;;
4533;SDS011;2279;51.448;7.306;2022-08-21T02:57:45;7.53;;;6.80;;
4533;SDS011;2279;51.448;7.306;2022-08-21T03:00:12;10.60;;;7.20;;
4533;SDS011;2279;51.448;7.306;2022-08-21T03:02:38;14.27;;;8.00;;
4533;SDS011;2279;51.448;7.306;2022-08-21T03:05:05;11.17;;;8.73;;
4533;SDS011;2279;51.448;7.306;2022-08-21T03:07:31;13.20;;;7.10;;
4533;SDS011;2279;51.448;7.306;2022-08-21T03:09:58;14.53;;;9.33;;
4533;SDS011;2279;51.448;7.306;2022-08-21T03:12:24;15.97;;;9.47;;
4533;SDS011;2279;51.448;7.306;2022-08-21T03:14:50;12.90;;;9.80;;
4533;SDS011;2279;51.448;7.306;2022-08-21T03:17:16;12.53;;;8.70;;
4533;SDS011;2279;51.448;7.306;2022-08-21T03:19:42;10.67;;;8.43;;
4533;SDS011;2279;51.448;7.306;2022-08-21T03:22:08;10.60;;;8.63;;
4533;SDS011;2279;51.448;7.306;2022-08-21T03:24:34;15.67;;;9.67;;
4533;SDS011;2279;51.448;7.306;2022-08-21T03:27:00;18.23;;;8.93;;
4533;SDS011;2279;51.448;7.306;2022-08-21T03:29:26;10.90;;;8.07;;
4533;SDS011;2279;51.448;7.306;2022-08-21T03:31:52;12.97;;;9.83;;
4533;SDS011;2279;51.448;7.306;2022-08-21T03:34:21;14.73;;;8.70;;
4533;SDS011;2279;51.448;7.306;2022-08-21T03:36:47;11.73;;;8.77;;
4533;SDS011;2279;51.448;7.306;2022-08-21T03:39:14;17.93;;;10.53;;
4533;SDS011;2279;51.448;7.306;2022-08-21T03:41:40;13.80;;;10.50;;
4533;SDS011;2279;51.448;7.306;2022-08-21T03:44:06;18.47;;;11.53;;
4533;SDS011;2279;51.448;7.306;2022-08-21T03:46:32;11.13;;;9.43;;
4533;SDS011;2279;51.448;7.306;2022-08-21T03:48:58;17.67;;;9.60;;
4533;SDS011;2279;51.448;7.306;2022-08-21T03:51:24;11.30;;;9.90;;
4533;SDS011;2279;51.448;7.306;2022-08-21T03:53:50;16.30;;;9.80;;
4533;SDS011;2279;51.448;7.306;2022-08-21T03:56:16;19.57;;;9.73;;
4533;SDS011;2279;51.448;7.306;2022-08-21T03:58:42;15.43;;;9.70;;
4533;SDS011;2279;51.448;7.306;2022-08-21T04:01:09;15.77;;;10.77;;
4533;SDS011;2279;51.448;7.306;2022-08-21T04:03:36;18.13;;;13.10;;
4533;SDS011;2279;51.448;7.306;2022-08-21T04:06:02;15.03;;;11.50;;
4533;SDS011;2279;51.448;7.306;2022-08-21T04:08:28;20.47;;;11.27;;
4533;SDS011;2279;51.448;7.306;2022-08-21T04:10:55;13.80;;;10.67;;
4533;SDS011;2279;51.448;7.306;2022-08-21T04:13:23;20.70;;;10.20;;
4533;SDS011;2279;51.448;7.306;2022-08-21T04:15:49;13.10;;;10.87;;
4533;SDS011;2279;51.448;7.306;2022-08-21T04:18:15;17.53;;;10.70;;
4533;SDS011;2279;51.448;7.306;2022-08-21T04:20:42;12.00;;;9.03;;
4533;SDS011;2279;51.448;7.306;2022-08-21T04:23:08;15.03;;;10.87;;
4533;SDS011;2279;51.448;7.306;2022-08-21T04:25:34;14.53;;;10.07;;
4533;SDS011;2279;51.448;7.306;2022-08-21T04:28:00;11.47;;;8.30;;
4533;SDS011;2279;51.448;7.306;2022-08-21T04:30:27;16.90;;;10.10;;
4533;SDS011;2279;51.448;7.306;2022-08-21T04:32:53;12.13;;;9.17;;
4533;SDS011;2279;51.448;7.306;2022-08-21T04:35:20;17.93;;;10.90;;
4533;SDS011;2279;51.448;7.306;2022-08-21T04:37:46;17.10;;;11.70;;
4533;SDS011;2279;51.448;7.306;2022-08-21T04:40:14;13.93;;;10.87;;
4533;SDS011;2279;51.448;7.306;2022-08-21T04:42:41;20.60;;;12.10;;
4533;SDS011;2279;51.448;7.306;2022-08-21T04:45:09;29.77;;;12.73;;
4533;SDS011;2279;51.448;7.306;2022-08-21T04:47:35;21.77;;;13.80;;
4533;SDS011;2279;51.448;7.306;2022-08-21T04:50:01;18.80;;;11.73;;
4533;SDS011;2279;51.448;7.306;2022-08-21T04:52:27;24.33;;;15.80;;
4533;SDS011;2279;51.448;7.306;2022-08-21T04:54:53;26.83;;;14.97;;
4533;SDS011;2279;51.448;7.306;2022-08-21T04:57:19;30.60;;;15.53;;
4533;SDS011;2279;51.448;7.306;2022-08-21T04:59:49;35.00;;;16.73;;
4533;SDS011;2279;51.448;7.306;2022-08-21T05:02:16;25.67;;;15.87;;
4533;SDS011;2279;51.448;7.306;2022-08-21T05:04:47;27.53;;;14.20;;
4533;SDS011;2279;51.448;7.306;2022-08-21T05:07:15;26.80;;;12.83;;
4533;SDS011;2279;51.448;7.306;2022-08-21T05:09:42;19.73;;;13.27;;
4533;SDS011;2279;51.448;7.306;2022-08-21T05:12:08;17.67;;;12.47;;
4533;SDS011;2279;51.448;7.306;2022-08-21T05:14:35;15.40;;;12.00;;
4533;SDS011;2279;51.448;7.306;2022-08-21T05:17:01;18.63;;;11.70;;
4533;SDS011;2279;51.448;7.306;2022-08-21T05:19:27;14.53;;;12.23;;
4533;SDS011;2279;51.448;7.306;2022-08-21T05:21:53;20.20;;;11.87;;
4533;SDS011;2279;51.448;7.306;2022-08-21T05:24:19;13.90;;;11.00;;
4533;SDS011;2279;51.448;7.306;2022-08-21T05:26:45;17.67;;;11.83;;
4533;SDS011;2279;51.448;7.306;2022-08-21T05:29:11;18.97;;;11.70;;
4533;SDS011;2279;51.448;7.306;2022-08-21T05:31:38;18.87;;;10.50;;
4533;SDS011;2279;51.448;7.306;2022-08-21T05:34:04;12.13;;;10.63;;
4533;SDS011;2279;51.448;7.306;2022-08-21T05:36:30;11.87;;;10.00;;
4533;SDS011;2279;51.448;7.306;2022-08-21T05:38:56;14.83;;;10.57;;
4533;SDS011;2279;51.448;7.306;2022-08-21T05:41:22;15.07;;;11.70;;
4533;SDS011;2279;51.448;7.306;2022-08-21T05:43:48;13.77;;;10.23;;
4533;SDS011;2279;51.448;7.306;2022-08-21T05:46:14;14.80;;;9.70;;
4533;SDS011;2279;51.448;7.306;2022-08-21T05:48:41;11.97;;;9.70;;
4533;SDS011;2279;51.448;7.306;2022-08-21T05:51:08;10.97;;;9.10;;
4533;SDS011;2279;51.448;7.306;2022-08-21T05:53:35;12.97;;;9.90;;
4533;SDS011;2279;51.448;7.306;2022-08-21T05:56:01;8.97;;;8.07;;
4533;SDS011;2279;51.448;7.306;2022-08-21T05:58:28;15.53;;;7.60;;
4533;SDS011;2279;51.448;7.306;2022-08-21T06:00:55;12.27;;;7.70;;
4533;SDS011;2279;51.448;7.306;2022-08-21T06:03:26;14.03;;;8.40;;
4533;SDS011;2279;51.448;7.306;2022-08-21T06:05:52;10.33;;;7.00;;
4533;SDS011;2279;51.448;7.306;2022-08-21T06:08:19;10.40;;;8.10;;
4533;SDS011;2279;51.448;7.306;2022-08-21T06:10:46;9.63;;;7.43;;
4533;SDS011;2279;51.448;7.306;2022-08-21T06:13:13;11.03;;;7.77;;
4533;SDS011;2279;51.448;7.306;2022-08-21T06:15:39;8.20;;;7.47;;
4533;SDS011;2279;51.448;7.306;2022-08-21T06:18:05;10.53;;;8.63;;
4533;SDS011;2279;51.448;7.306;2022-08-21T06:20:31;8.73;;;7.70;;
4533;SDS011;2279;51.448;7.306;2022-08-21T06:22:57;13.80;;;7.13;;
4533;SDS011;2279;51.448;7.306;2022-08-21T06:25:24;16.90;;;7.70;;
4533;SDS011;2279;51.448;7.306;2022-08-21T06:27:50;11.70;;;7.10;;
4533;SDS011;2279;51.448;7.306;2022-08-21T06:30:16;12.47;;;8.00;;
4533;SDS011;2279;51.448;7.306;2022-08-21T06:32:42;8.43;;;7.10;;
4533;SDS011;2279;51.448;7.306;2022-08-21T06:35:08;9.43;;;8.00;;
4533;SDS011;2279;51.448;7.306;2022-08-21T06:37:34;8.70;;;7.17;;
4533;SDS011;2279;51.448;7.306;2022-08-21T06:40:00;8.00;;;6.73;;
4533;SDS011;2279;51.448;7.306;2022-08-21T06:42:26;12.77;;;8.20;;
4533;SDS011;2279;51.448;7.306;2022-08-21T06:44:53;10.73;;;7.70;;
4533;SDS011;2279;51.448;7.306;2022-08-21T06:47:19;16.53;;;8.30;;
4533;SDS011;2279;51.448;7.306;2022-08-21T06:49:45;14.20;;;8.63;;
4533;SDS011;2279;51.448;7.306;2022-08-21T06:52:11;8.33;;;7.53;;
4533;SDS011;2279;51.448;7.306;2022-08-21T06:54:38;17.73;;;8.77;;
4533;SDS011;2279;51.448;7.306;2022-08-21T06:57:04;9.67;;;8.77;;
4533;SDS011;2279;51.448;7.306;2022-08-21T06:59:31;19.23;;;9.40;;
4533;SDS011;2279;51.448;7.306;2022-08-21T07:01:57;16.77;;;9.07;;
4533;SDS011;2279;51.448;7.306;2022-08-21T07:04:23;11.00;;;9.03;;
4533;SDS011;2279;51.448;7.306;2022-08-21T07:06:49;17.30;;;10.87;;
4533;SDS011;2279;51.448;7.306;2022-08-21T07:09:15;11.77;;;8.53;;
4533;SDS011;2279;51.448;7.306;2022-08-21T07:11:41;14.07;;;9.00;;
4533;SDS011;2279;51.448;7.306;2022-08-21T07:14:07;13.63;;;9.03;;
4533;SDS011;2279;51.448;7.306;2022-08-21T07:16:33;12.63;;;9.93;;
4533;SDS011;2279;51.448;7.306;2022-08-21T07:18:59;13.23;;;9.57;;
4533;SDS011;2279;51.448;7.306;2022-08-21T07:21:25;14.80;;;8.33;;
4533;SDS011;2279;51.448;7.306;2022-08-21T07:23:51;20.20;;;8.23;;
4533;SDS011;2279;51.448;7.306;2022-08-21T07:26:18;9.63;;;7.60;;
4533;SDS011;2279;51.448;7.306;2022-08-21T07:28:46;12.83;;;8.93;;
4533;SDS011;2279;51.448;7.306;2022-08-21T07:31:13;19.23;;;9.93;;
4533;SDS011;2279;51.448;7.306;2022-08-21T07:33:39;14.40;;;9.43;;
4533;SDS011;2279;51.448;7.306;2022-08-21T07:36:06;15.87;;;8.77;;
4533;SDS011;2279;51.448;7.306;2022-08-21T07:38:32;15.10;;;7.30;;
4533;SDS011;2279;51.448;7.306;2022-08-21T07:40:58;16.33;;;6.50;;
4533;SDS011;2279;51.448;7.306;2022-08-21T07:43:26;10.80;;;7.20;;
4533;SDS011;2279;51.448;7.306;2022-08-21T07:45:52;9.50;;;6.60;;
4533;SDS011;2279;51.448;7.306;2022-08-21T07:48:22;10.23;;;7.07;;
4533;SDS011;2279;51.448;7.306;2022-08-21T07:50:48;12.83;;;6.80;;
4533;SDS011;2279;51.448;7.306;2022-08-21T07:53:14;11.60;;;7.33;;
4533;SDS011;2279;51.448;7.306;2022-08-21T07:55:41;8.87;;;6.10;;
4533;SDS011;2279;51.448;7.306;2022-08-21T07:58:07;9.47;;;5.83;;
4533;SDS011;2279;51.448;7.306;2022-08-21T08:00:33;12.90;;;5.50;;
4533;SDS011;2279;51.448;7.306;2022-08-21T08:02:59;14.20;;;4.80;;
4533;SDS011;2279;51.448;7.306;2022-08-21T08:05:26;11.33;;;5.70;;
4533;SDS011;2279;51.448;7.306;2022-08-21T08:07:54;11.10;;;5.33;;
4533;SDS011;2279;51.448;7.306;2022-08-21T08:10:20;6.90;;;4.40;;
4533;SDS011;2279;51.448;7.306;2022-08-21T08:12:47;7.67;;;4.00;;
4533;SDS011;2279;51.448;7.306;2022-08-21T08:15:15;11.13;;;4.33;;
4533;SDS011;2279;51.448;7.306;2022-08-21T08:17:41;10.20;;;4.37;;
4533;SDS011;2279;51.448;7.306;2022-08-21T08:20:08;7.80;;;4.57;;
4533;SDS011;2279;51.448;7.306;2022-08-21T08:22:35;11.00;;;3.70;;
4533;SDS011;2279;51.448;7.306;2022-08-21T08:25:02;6.63;;;3.87;;
4533;SDS011;2279;51.448;7.306;2022-08-21T08:27:29;4.27;;;3.47;;
4533;SDS011;2279;51.448;7.306;2022-08-21T08:29:55;4.07;;;3.10;;
4533;SDS011;2279;51.448;7.306;2022-08-21T08:32:21;7.77;;;3.33;;
4533;SDS011;2279;51.448;7.306;2022-08-21T08:34:47;7.30;;;3.30;;
4533;SDS011;2279;51.448;7.306;2022-08-21T08:37:14;5.90;;;3.57;;
4533;SDS011;2279;51.448;7.306;2022-08-21T08:39:41;5.20;;;2.60;;
4533;SDS011;2279;51.448;7.306;2022-08-21T08:42:18;5.50;;;3.73;;
4533;SDS011;2279;51.448;7.306;2022-08-21T08:44:46;5.83;;;2.77;;
4533;SDS011;2279;51.448;7.306;2022-08-21T08:47:13;5.77;;;2.40;;
4533;SDS011;2279;51.448;7.306;2022-08-21T08:49:42;2.30;;;2.10;;
4533;SDS011;2279;51.448;7.306;2022-08-21T08:52:29;8.70;;;3.30;;
4533;SDS011;2279;51.448;7.306;2022-08-21T08:54:59;7.10;;;2.47;;
4533;SDS011;2279;51.448;7.306;2022-08-21T08:57:27;5.80;;;2.20;;
4533;SDS011;2279;51.448;7.306;2022-08-21T08:59:56;5.53;;;2.47;;
4533;SDS011;2279;51.448;7.306;2022-08-21T09:02:23;6.97;;;2.80;;
4533;SDS011;2279;51.448;7.306;2022-08-21T09:04:52;4.50;;;2.30;;
4533;SDS011;2279;51.448;7.306;2022-08-21T09:10:29;6.67;;;2.83;;
4533;SDS011;2279;51.448;7.306;2022-08-21T09:12:52;5.67;;;2.03;;
4533;SDS011;2279;51.448;7.306;2022-08-21T09:15:24;4.80;;;2.20;;
4533;SDS011;2279;51.448;7.306;2022-08-21T09:20:29;2.60;;;1.60;;
4533;SDS011;2279;51.448;7.306;2022-08-21T09:25:29;5.00;;;2.30;;
4533;SDS011;2279;51.448;7.306;2022-08-21T09:27:56;6.20;;;2.23;;
4533;SDS011;2279;51.448;7.306;2022-08-21T09:30:26;5.20;;;2.33;;
4533;SDS011;2279;51.448;7.306;2022-08-21T09:32:52;3.70;;;2.37;;
4533;SDS011;2279;51.448;7.306;2022-08-21T09:35:20;5.60;;;2.20;;
4533;SDS011;2279;51.448;7.306;2022-08-21T09:40:18;2.87;;;1.90;;
4533;SDS011;2279;51.448;7.306;2022-08-21T09:42:53;4.70;;;1.80;;
4533;SDS011;2279;51.448;7.306;2022-08-21T09:45:19;5.37;;;2.67;;
4533;SDS011;2279;51.448;7.306;2022-08-21T09:47:45;4.03;;;2.07;;
4533;SDS011;2279;51.448;7.306;2022-08-21T09:50:21;5.70;;;1.67;;
4533;SDS011;2279;51.448;7.306;2022-08-21T09:52:50;4.53;;;2.10;;
4533;SDS011;2279;51.448;7.306;2022-08-21T09:55:34;5.30;;;2.50;;
4533;SDS011;2279;51.448;7.306;2022-08-21T09:58:19;4.53;;;2.50;;
4533;SDS011;2279;51.448;7.306;2022-08-21T10:00:45;5.20;;;2.57;;
4533;SDS011;2279;51.448;7.306;2022-08-21T10:03:21;2.80;;;2.13;;
4533;SDS011;2279;51.448;7.306;2022-08-21T10:05:53;4.03;;;2.40;;
4533;SDS011;2279;51.448;7.306;2022-08-21T10:08:20;4.67;;;2.23;;
4533;SDS011;2279;51.448;7.306;2022-08-21T10:10:50;4.10;;;2.27;;
4533;SDS011;2279;51.448;7.306;2022-08-21T10:16:07;9.07;;;2.30;;
4533;SDS011;2279;51.448;7.306;2022-08-21T10:18:41;6.80;;;2.07;;
4533;SDS011;2279;51.448;7.306;2022-08-21T10:23:37;5.47;;;1.70;;
4533;SDS011;2279;51.448;7.306;2022-08-21T10:26:07;2.70;;;1.87;;
4533;SDS011;2279;51.448;7.306;2022-08-21T10:28:38;7.73;;;1.90;;
4533;SDS011;2279;51.448;7.306;2022-08-21T10:33:58;4.90;;;2.20;;
4533;SDS011;2279;51.448;7.306;2022-08-21T10:36:36;5.47;;;1.97;;
4533;SDS011;2279;51.448;7.306;2022-08-21T10:59:59;2.00;;;1.37;;
4533;SDS011;2279;51.448;7.306;2022-08-21T11:02:29;5.53;;;1.60;;
4533;SDS011;2279;51.448;7.306;2022-08-21T11:05:07;3.37;;;1.77;;
4533;SDS011;2279;51.448;7.306;2022-08-21T11:07:38;1.67;;;1.37;;
4533;SDS011;2279;51.448;7.306;2022-08-21T11:10:13;4.67;;;1.60;;
4533;SDS011;2279;51.448;7.306;2022-08-21T11:12:41;2.37;;;1.30;;
4533;SDS011;2279;51.448;7.306;2022-08-21T11:15:19;6.07;;;1.80;;
4533;SDS011;2279;51.448;7.306;2022-08-21T11:20:38;2.50;;;1.50;;
4533;SDS011;2279;51.448;7.306;2022-08-21T11:23:26;1.67;;;1.17;;
4533;SDS011;2279;51.448;7.306;2022-08-21T11:25:58;2.13;;;1.40;;
4533;SDS011;2279;51.448;7.306;2022-08-21T11:31:02;6.60;;;1.60;;
4533;SDS011;2279;51.448;7.306;2022-08-21T11:36:22;3.30;;;1.43;;
4533;SDS011;2279;51.448;7.306;2022-08-21T11:38:54;3.37;;;1.50;;
4533;SDS011;2279;51.448;7.306;2022-08-21T11:43:57;2.20;;;1.37;;
4533;SDS011;2279;51.448;7.306;2022-08-21T11:51:57;2.87;;;1.40;;
4533;SDS011;2279;51.448;7.306;2022-08-21T11:54:35;4.50;;;1.40;;
4533;SDS011;2279;51.448;7.306;2022-08-21T11:57:14;1.70;;;1.20;;
4533;SDS011;2279;51.448;7.306;2022-08-21T11:59:47;3.87;;;1.50;;
4533;SDS011;2279;51.448;7.306;2022-08-21T12:02:22;3.20;;;1.30;;
4533;SDS011;2279;51.448;7.306;2022-08-21T12:04:51;2.50;;;1.40;;
4533;SDS011;2279;51.448;7.306;2022-08-21T12:07:28;2.13;;;1.40;;
4533;SDS011;2279;51.448;7.306;2022-08-21T12:09:56;2.60;;;1.30;;
4533;SDS011;2279;51.448;7.306;2022-08-21T12:12:24;2.00;;;1.33;;
4533;SDS011;2279;51.448;7.306;2022-08-21T12:14:51;2.47;;;1.50;;
4533;SDS011;2279;51.448;7.306;2022-08-21T12:17:18;3.20;;;1.30;;
4533;SDS011;2279;51.448;7.306;2022-08-21T12:19:45;1.20;;;1.07;;
4533;SDS011;2279;51.448;7.306;2022-08-21T12:22:21;1.93;;;1.40;;
4533;SDS011;2279;51.448;7.306;2022-08-21T12:24:48;2.47;;;1.27;;
4533;SDS011;2279;51.448;7.306;2022-08-21T12:27:22;1.63;;;1.20;;
4533;SDS011;2279;51.448;7.306;2022-08-21T12:29:53;2.70;;;1.43;;
4533;SDS011;2279;51.448;7.306;2022-08-21T12:32:24;5.53;;;1.47;;
4533;SDS011;2279;51.448;7.306;2022-08-21T12:40:23;2.23;;;1.50;;
4533;SDS011;2279;51.448;7.306;2022-08-21T12:42:50;3.03;;;1.43;;
4533;SDS011;2279;51.448;7.306;2022-08-21T12:45:40;1.87;;;1.37;;
4533;SDS011;2279;51.448;7.306;2022-08-21T12:48:14;2.83;;;1.03;;
4533;SDS011;2279;51.448;7.306;2022-08-21T12:50:44;2.60;;;1.00;;
4533;SDS011;2279;51.448;7.306;2022-08-21T12:53:15;2.10;;;1.23;;
4533;SDS011;2279;51.448;7.306;2022-08-21T12:55:46;1.87;;;1.40;;
4533;SDS011;2279;51.448;7.306;2022-08-21T12:58:17;2.70;;;1.40;;
4533;SDS011;2279;51.448;7.306;2022-08-21T13:00:47;1.50;;;1.07;;
4533;SDS011;2279;51.448;7.306;2022-08-21T13:03:14;2.80;;;1.60;;
4533;SDS011;2279;51.448;7.306;2022-08-21T13:05:40;2.23;;;1.43;;
4533;SDS011;2279;51.448;7.306;2022-08-21T13:08:07;2.07;;;1.10;;
4533;SDS011;2279;51.448;7.306;2022-08-21T13:10:34;1.47;;;1.37;;
4533;SDS011;2279;51.448;7.306;2022-08-21T13:13:02;2.33;;;1.10;;
4533;SDS011;2279;51.448;7.306;2022-08-21T13:15:31;3.20;;;1.23;;
4533;SDS011;2279;51.448;7.306;2022-08-21T13:17:58;1.40;;;0.87;;
4533;SDS011;2279;51.448;7.306;2022-08-21T13:20:34;3.10;;;1.20;;
4533;SDS011;2279;51.448;7.306;2022-08-21T13:23:01;3.10;;;1.20;;
4533;SDS011;2279;51.448;7.306;2022-08-21T13:25:28;2.77;;;1.10;;
4533;SDS011;2279;51.448;7.306;2022-08-21T13:28:04;2.40;;;1.20;;
4533;SDS011;2279;51.448;7.306;2022-08-21T13:30:30;2.30;;;1.07;;
4533;SDS011;2279;51.448;7.306;2022-08-21T13:32:58;1.97;;;0.97;;
4533;SDS011;2279;51.448;7.306;2022-08-21T13:35:46;1.10;;;1.00;;
4533;SDS011;2279;51.448;7.306;2022-08-21T13:38:10;2.73;;;1.13;;
4533;SDS011;2279;51.448;7.306;2022-08-21T13:40:41;4.50;;;1.10;;
4533;SDS011;2279;51.448;7.306;2022-08-21T13:43:14;1.10;;;1.00;;
4533;SDS011;2279;51.448;7.306;2022-08-21T13:45:43;3.77;;;1.37;;
4533;SDS011;2279;51.448;7.306;2022-08-21T13:48:09;4.23;;;1.20;;
4533;SDS011;2279;51.448;7.306;2022-08-21T13:50:36;2.43;;;1.20;;
4533;SDS011;2279;51.448;7.306;2022-08-21T13:53:04;2.13;;;1.07;;
4533;SDS011;2279;51.448;7.306;2022-08-21T13:55:49;1.87;;;1.20;;
4533;SDS011;2279;51.448;7.306;2022-08-21T13:58:23;1.30;;;1.20;;
4533;SDS011;2279;51.448;7.306;2022-08-21T14:00:50;2.07;;;1.17;;
4533;SDS011;2279;51.448;7.306;2022-08-21T14:03:26;1.70;;;1.20;;
4533;SDS011;2279;51.448;7.306;2022-08-21T14:05:52;1.40;;;1.20;;
4533;SDS011;2279;51.448;7.306;2022-08-21T14:08:37;6.70;;;3.23;;
4533;SDS011;2279;51.448;7.306;2022-08-21T14:11:06;2.20;;;1.20;;
4533;SDS011;2279;51.448;7.306;2022-08-21T14:16:02;1.60;;;1.00;;
4533;SDS011;2279;51.448;7.306;2022-08-21T14:18:29;1.30;;;1.20;;
4533;SDS011;2279;51.448;7.306;2022-08-21T14:21:05;2.83;;;1.33;;
4533;SDS011;2279;51.448;7.306;2022-08-21T14:23:31;3.47;;;1.10;;
4533;SDS011;2279;51.448;7.306;2022-08-21T14:26:01;2.97;;;1.10;;
4533;SDS011;2279;51.448;7.306;2022-08-21T14:28:31;3.23;;;1.27;;
4533;SDS011;2279;51.448;7.306;2022-08-21T14:30:59;1.57;;;1.07;;
4533;SDS011;2279;51.448;7.306;2022-08-21T14:33:37;2.03;;;1.00;;
4533;SDS011;2279;51.448;7.306;2022-08-21T14:36:03;2.17;;;0.90;;
4533;SDS011;2279;51.448;7.306;2022-08-21T14:38:29;2.97;;;1.20;;
4533;SDS011;2279;51.448;7.306;2022-08-21T14:40:57;1.83;;;1.23;;
4533;SDS011;2279;51.448;7.306;2022-08-21T14:43:25;2.43;;;1.20;;
4533;SDS011;2279;51.448;7.306;2022-08-21T14:45:51;1.53;;;0.93;;
4533;SDS011;2279;51.448;7.306;2022-08-21T14:48:17;1.53;;;1.10;;
4533;SDS011;2279;51.448;7.306;2022-08-21T14:50:43;1.53;;;1.43;;
4533;SDS011;2279;51.448;7.306;2022-08-21T14:53:09;1.40;;;1.20;;
4533;SDS011;2279;51.448;7.306;2022-08-21T14:55:36;1.70;;;1.27;;
4533;SDS011;2279;51.448;7.306;2022-08-21T14:58:22;3.40;;;1.50;;
4533;SDS011;2279;51.448;7.306;2022-08-21T15:00:50;1.67;;;1.30;;
4533;SDS011;2279;51.448;7.306;2022-08-21T15:03:16;3.00;;;1.20;;
4533;SDS011;2279;51.448;7.306;2022-08-21T15:05:42;2.67;;;1.50;;
4533;SDS011;2279;51.448;7.306;2022-08-21T15:08:08;1.80;;;1.13;;
4533;SDS011;2279;51.448;7.306;2022-08-21T15:10:34;1.80;;;1.30;;
4533;SDS011;2279;51.448;7.306;2022-08-21T15:13:01;5.33;;;1.30;;
4533;SDS011;2279;51.448;7.306;2022-08-21T15:15:28;1.50;;;1.27;;
4533;SDS011;2279;51.448;7.306;2022-08-21T15:17:54;1.63;;;1.10;;
4533;SDS011;2279;51.448;7.306;2022-08-21T15:20:20;2.10;;;1.50;;
4533;SDS011;2279;51.448;7.306;2022-08-21T15:22:46;1.60;;;1.30;;
4533;SDS011;2279;51.448;7.306;2022-08-21T15:25:12;4.10;;;1.30;;
4533;SDS011;2279;51.448;7.306;2022-08-21T15:27:38;2.00;;;1.30;;
4533;SDS011;2279;51.448;7.306;2022-08-21T15:30:04;2.50;;;1.20;;
4533;SDS011;2279;51.448;7.306;2022-08-21T15:32:30;4.73;;;1.90;;
4533;SDS011;2279;51.448;7.306;2022-08-21T15:34:56;4.77;;;1.60;;
4533;SDS011;2279;51.448;7.306;2022-08-21T15:37:22;1.97;;;1.30;;
4533;SDS011;2279;51.448;7.306;2022-08-21T15:39:49;3.90;;;1.30;;
4533;SDS011;2279;51.448;7.306;2022-08-21T15:42:15;2.83;;;1.50;;
4533;SDS011;2279;51.448;7.306;2022-08-21T15:44:42;2.70;;;1.33;;
4533;SDS011;2279;51.448;7.306;2022-08-21T15:47:13;2.00;;;1.33;;
4533;SDS011;2279;51.448;7.306;2022-08-21T15:49:40;4.17;;;1.50;;
4533;SDS011;2279;51.448;7.306;2022-08-21T15:52:09;2.13;;;1.33;;
4533;SDS011;2279;51.448;7.306;2022-08-21T15:54:35;2.07;;;1.73;;
4533;SDS011;2279;51.448;7.306;2022-08-21T15:57:01;5.93;;;1.47;;
4533;SDS011;2279;51.448;7.306;2022-08-21T15:59:27;2.30;;;1.10;;
4533;SDS011;2279;51.448;7.306;2022-08-21T16:01:55;1.40;;;1.30;;
4533;SDS011;2279;51.448;7.306;2022-08-21T16:04:22;1.93;;;1.40;;
4533;SDS011;2279;51.448;7.306;2022-08-21T16:06:49;2.60;;;1.53;;
4533;SDS011;2279;51.448;7.306;2022-08-21T16:09:15;3.70;;;1.90;;
4533;SDS011;2279;51.448;7.306;2022-08-21T16:11:41;1.50;;;1.40;;
4533;SDS011;2279;51.448;7.306;2022-08-21T16:14:07;6.37;;;1.80;;
4533;SDS011;2279;51.448;7.306;2022-08-21T16:16:33;2.80;;;1.63;;